sensor_id;sensor_type;location;lat;lon;timestamp;temperature;humidity
14349;DHT22;7258;50.376;8.742;2023-05-07T00:01:34;15.20;99.90
14349;DHT22;7258;50.376;8.742;2023-05-07T00:03:37;15.20;99.90
14349;DHT22;7258;50.376;8.742;2023-05-07T00:05:42;15.20;99.90
14349;DHT22;7258;50.376;8.742;2023-05-07T00:07:45;15.20;99.90
14349;DHT22;7258;50.376;8.742;2023-05-07T00:09:50;15.20;99.90
14349;DHT22;7258;50.376;8.742;2023-05-07T00:11:53;15.20;99.90
14349;DHT22;7258;50.376;8.742;2023-05-07T00:13:56;15.10;99.90
14349;DHT22;7258;50.376;8.742;2023-05-07T00:15:58;15.10;99.90
14349;DHT22;7258;50.376;8.742;2023-05-07T00:18:01;15.10;99.90
14349;DHT22;7258;50.376;8.742;2023-05-07T00:20:05;15.10;99.90
14349;DHT22;7258;50.376;8.742;2023-05-07T00:22:09;15.10;99.90
14349;DHT22;7258;50.376;8.742;2023-05-07T00:24:12;15.10;99.90
14349;DHT22;7258;50.376;8.742;2023-05-07T00:26:16;15.10;99.90
14349;DHT22;7258;50.376;8.742;2023-05-07T00:28:18;15.10;99.90
14349;DHT22;7258;50.376;8.742;2023-05-07T00:30:21;15.10;99.90
14349;DHT22;7258;50.376;8.742;2023-05-07T00:32:24;15.10;99.90
14349;DHT22;7258;50.376;8.742;2023-05-07T00:34:27;15.10;99.90
14349;DHT22;7258;50.376;8.742;2023-05-07T00:36:30;15.10;99.90
14349;DHT22;7258;50.376;8.742;2023-05-07T00:38:34;15.10;99.90
14349;DHT22;7258;50.376;8.742;2023-05-07T00:40:38;15.10;99.90
14349;DHT22;7258;50.376;8.742;2023-05-07T00:42:43;15.10;99.90
14349;DHT22;7258;50.376;8.742;2023-05-07T00:44:48;15.10;99.90
14349;DHT22;7258;50.376;8.742;2023-05-07T00:46:51;15.10;99.90
14349;DHT22;7258;50.376;8.742;2023-05-07T00:48:55;15.10;99.90
14349;DHT22;7258;50.376;8.742;2023-05-07T00:50:57;15.10;99.90
14349;DHT22;7258;50.376;8.742;2023-05-07T00:53:00;15.10;99.90
14349;DHT22;7258;50.376;8.742;2023-05-07T00:55:07;15.10;99.90
14349;DHT22;7258;50.376;8.742;2023-05-07T00:57:10;15.00;99.90
14349;DHT22;7258;50.376;8.742;2023-05-07T00:59:16;15.00;99.90
14349;DHT22;7258;50.376;8.742;2023-05-07T01:01:19;15.00;99.90
14349;DHT22;7258;50.376;8.742;2023-05-07T01:03:22;15.00;99.90
14349;DHT22;7258;50.376;8.742;2023-05-07T01:05:26;15.00;99.90
14349;DHT22;7258;50.376;8.742;2023-05-07T01:07:32;15.00;99.90
14349;DHT22;7258;50.376;8.742;2023-05-07T01:09:35;15.00;99.90
14349;DHT22;7258;50.376;8.742;2023-05-07T01:11:40;15.00;99.90
14349;DHT22;7258;50.376;8.742;2023-05-07T01:13:45;15.00;99.90
14349;DHT22;7258;50.376;8.742;2023-05-07T01:15:50;15.00;99.90
14349;DHT22;7258;50.376;8.742;2023-05-07T01:17:53;15.00;99.90
14349;DHT22;7258;50.376;8.742;2023-05-07T01:19:56;15.00;99.90
14349;DHT22;7258;50.376;8.742;2023-05-07T01:22:02;15.00;99.90
14349;DHT22;7258;50.376;8.742;2023-05-07T01:24:07;15.00;99.90
14349;DHT22;7258;50.376;8.742;2023-05-07T01:26:10;15.00;99.90
14349;DHT22;7258;50.376;8.742;2023-05-07T01:28:13;14.90;99.90
14349;DHT22;7258;50.376;8.742;2023-05-07T01:30:16;14.90;99.90
14349;DHT22;7258;50.376;8.742;2023-05-07T01:32:25;14.90;99.90
14349;DHT22;7258;50.376;8.742;2023-05-07T01:34:32;14.90;99.90
14349;DHT22;7258;50.376;8.742;2023-05-07T01:36:37;14.80;99.90
14349;DHT22;7258;50.376;8.742;2023-05-07T01:38:41;14.90;99.90
14349;DHT22;7258;50.376;8.742;2023-05-07T01:40:46;14.80;99.90
14349;DHT22;7258;50.376;8.742;2023-05-07T01:42:49;14.80;99.90
14349;DHT22;7258;50.376;8.742;2023-05-07T01:44:52;14.80;99.90
14349;DHT22;7258;50.376;8.742;2023-05-07T01:46:55;14.80;99.90
14349;DHT22;7258;50.376;8.742;2023-05-07T01:48:59;14.80;99.90
14349;DHT22;7258;50.376;8.742;2023-05-07T01:51:02;14.80;99.90
14349;DHT22;7258;50.376;8.742;2023-05-07T01:53:06;14.80;99.90
14349;DHT22;7258;50.376;8.742;2023-05-07T01:55:09;14.80;99.90
14349;DHT22;7258;50.376;8.742;2023-05-07T01:57:13;14.80;99.90
14349;DHT22;7258;50.376;8.742;2023-05-07T01:59:16;14.80;99.90
14349;DHT22;7258;50.376;8.742;2023-05-07T02:01:19;14.80;99.90
14349;DHT22;7258;50.376;8.742;2023-05-07T02:03:22;14.80;99.90
14349;DHT22;7258;50.376;8.742;2023-05-07T02:05:25;14.70;99.90
14349;DHT22;7258;50.376;8.742;2023-05-07T02:07:28;14.70;99.90
14349;DHT22;7258;50.376;8.742;2023-05-07T02:09:31;14.70;99.90
14349;DHT22;7258;50.376;8.742;2023-05-07T02:11:34;14.60;99.90
14349;DHT22;7258;50.376;8.742;2023-05-07T02:13:38;14.60;99.90
14349;DHT22;7258;50.376;8.742;2023-05-07T02:15:41;14.60;99.90
14349;DHT22;7258;50.376;8.742;2023-05-07T02:17:58;14.60;99.90
14349;DHT22;7258;50.376;8.742;2023-05-07T02:20:01;14.50;99.90
14349;DHT22;7258;50.376;8.742;2023-05-07T02:22:05;14.50;99.90
14349;DHT22;7258;50.376;8.742;2023-05-07T02:24:10;14.50;99.90
14349;DHT22;7258;50.376;8.742;2023-05-07T02:26:13;14.50;99.90
14349;DHT22;7258;50.376;8.742;2023-05-07T02:28:16;14.50;99.90
14349;DHT22;7258;50.376;8.742;2023-05-07T02:30:21;14.50;99.90
14349;DHT22;7258;50.376;8.742;2023-05-07T02:32:23;14.50;99.90
14349;DHT22;7258;50.376;8.742;2023-05-07T02:34:26;14.50;99.90
14349;DHT22;7258;50.376;8.742;2023-05-07T02:36:29;14.50;99.90
14349;DHT22;7258;50.376;8.742;2023-05-07T02:38:32;14.50;99.90
14349;DHT22;7258;50.376;8.742;2023-05-07T02:40:35;14.50;99.90
14349;DHT22;7258;50.376;8.742;2023-05-07T02:42:40;14.50;99.90
14349;DHT22;7258;50.376;8.742;2023-05-07T02:44:43;14.40;99.90
14349;DHT22;7258;50.376;8.742;2023-05-07T02:46:47;14.50;99.90
14349;DHT22;7258;50.376;8.742;2023-05-07T02:48:50;14.40;99.90
14349;DHT22;7258;50.376;8.742;2023-05-07T02:50:53;14.40;99.90
14349;DHT22;7258;50.376;8.742;2023-05-07T02:52:56;14.40;99.90
14349;DHT22;7258;50.376;8.742;2023-05-07T02:54:59;14.40;99.90
14349;DHT22;7258;50.376;8.742;2023-05-07T02:57:02;14.40;99.90
14349;DHT22;7258;50.376;8.742;2023-05-07T02:59:05;14.40;99.90
14349;DHT22;7258;50.376;8.742;2023-05-07T03:01:08;14.30;99.90
14349;DHT22;7258;50.376;8.742;2023-05-07T03:03:13;14.30;99.90
14349;DHT22;7258;50.376;8.742;2023-05-07T03:05:16;14.30;99.90
14349;DHT22;7258;50.376;8.742;2023-05-07T03:07:19;14.30;99.90
14349;DHT22;7258;50.376;8.742;2023-05-07T03:09:21;14.30;99.90
14349;DHT22;7258;50.376;8.742;2023-05-07T03:11:24;14.30;99.90
14349;DHT22;7258;50.376;8.742;2023-05-07T03:13:27;14.30;99.90
14349;DHT22;7258;50.376;8.742;2023-05-07T03:15:30;14.30;99.90
14349;DHT22;7258;50.376;8.742;2023-05-07T03:17:33;14.20;99.90
14349;DHT22;7258;50.376;8.742;2023-05-07T03:19:37;14.20;99.90
14349;DHT22;7258;50.376;8.742;2023-05-07T03:21:40;14.20;99.90
14349;DHT22;7258;50.376;8.742;2023-05-07T03:23:43;14.20;99.90
14349;DHT22;7258;50.376;8.742;2023-05-07T03:25:46;14.10;99.90
14349;DHT22;7258;50.376;8.742;2023-05-07T03:27:49;14.20;99.90
14349;DHT22;7258;50.376;8.742;2023-05-07T03:29:52;14.10;99.90
14349;DHT22;7258;50.376;8.742;2023-05-07T03:31:55;14.10;99.90
14349;DHT22;7258;50.376;8.742;2023-05-07T03:33:58;14.10;99.90
14349;DHT22;7258;50.376;8.742;2023-05-07T03:36:03;14.10;99.90
14349;DHT22;7258;50.376;8.742;2023-05-07T03:38:06;14.10;99.90
14349;DHT22;7258;50.376;8.742;2023-05-07T03:40:10;14.00;99.90
14349;DHT22;7258;50.376;8.742;2023-05-07T03:42:14;14.00;99.90
14349;DHT22;7258;50.376;8.742;2023-05-07T03:44:19;14.00;99.90
14349;DHT22;7258;50.376;8.742;2023-05-07T03:46:22;14.00;99.90
14349;DHT22;7258;50.376;8.742;2023-05-07T03:48:27;14.00;99.90
14349;DHT22;7258;50.376;8.742;2023-05-07T03:50:30;14.00;99.90
14349;DHT22;7258;50.376;8.742;2023-05-07T03:52:35;13.90;99.90
14349;DHT22;7258;50.376;8.742;2023-05-07T03:54:38;13.90;99.90
14349;DHT22;7258;50.376;8.742;2023-05-07T03:56:40;13.90;99.90
14349;DHT22;7258;50.376;8.742;2023-05-07T03:58:44;13.90;99.90
14349;DHT22;7258;50.376;8.742;2023-05-07T04:00:47;13.90;99.90
14349;DHT22;7258;50.376;8.742;2023-05-07T04:02:50;13.90;99.90
14349;DHT22;7258;50.376;8.742;2023-05-07T04:04:53;13.90;99.90
14349;DHT22;7258;50.376;8.742;2023-05-07T04:06:56;13.90;99.90
14349;DHT22;7258;50.376;8.742;2023-05-07T04:09:00;13.90;99.90
14349;DHT22;7258;50.376;8.742;2023-05-07T04:11:04;13.90;99.90
14349;DHT22;7258;50.376;8.742;2023-05-07T04:13:08;13.90;99.90
14349;DHT22;7258;50.376;8.742;2023-05-07T04:15:10;13.90;99.90
14349;DHT22;7258;50.376;8.742;2023-05-07T04:17:14;13.90;99.90
14349;DHT22;7258;50.376;8.742;2023-05-07T04:19:16;13.90;99.90
14349;DHT22;7258;50.376;8.742;2023-05-07T04:21:20;13.90;99.90
14349;DHT22;7258;50.376;8.742;2023-05-07T04:23:23;13.90;99.90
14349;DHT22;7258;50.376;8.742;2023-05-07T04:25:27;13.90;99.90
14349;DHT22;7258;50.376;8.742;2023-05-07T04:27:30;13.90;99.90
14349;DHT22;7258;50.376;8.742;2023-05-07T04:29:33;13.90;99.90
14349;DHT22;7258;50.376;8.742;2023-05-07T04:31:36;13.90;99.90
14349;DHT22;7258;50.376;8.742;2023-05-07T04:33:39;14.00;99.90
14349;DHT22;7258;50.376;8.742;2023-05-07T04:35:42;14.00;99.90
14349;DHT22;7258;50.376;8.742;2023-05-07T04:37:45;14.00;99.90
14349;DHT22;7258;50.376;8.742;2023-05-07T04:39:48;14.00;99.90
14349;DHT22;7258;50.376;8.742;2023-05-07T04:41:52;14.00;99.90
14349;DHT22;7258;50.376;8.742;2023-05-07T04:43:55;14.00;99.90
14349;DHT22;7258;50.376;8.742;2023-05-07T04:46:00;14.00;99.90
14349;DHT22;7258;50.376;8.742;2023-05-07T04:48:03;14.00;99.90
14349;DHT22;7258;50.376;8.742;2023-05-07T04:50:07;14.00;99.90
14349;DHT22;7258;50.376;8.742;2023-05-07T04:52:11;14.10;99.90
14349;DHT22;7258;50.376;8.742;2023-05-07T04:54:14;14.10;99.90
14349;DHT22;7258;50.376;8.742;2023-05-07T04:56:17;14.10;99.90
14349;DHT22;7258;50.376;8.742;2023-05-07T04:58:21;14.10;99.90
14349;DHT22;7258;50.376;8.742;2023-05-07T05:00:24;14.10;99.90
14349;DHT22;7258;50.376;8.742;2023-05-07T05:02:27;14.10;99.90
14349;DHT22;7258;50.376;8.742;2023-05-07T05:04:30;14.10;99.90
14349;DHT22;7258;50.376;8.742;2023-05-07T05:06:33;14.10;99.90
14349;DHT22;7258;50.376;8.742;2023-05-07T05:08:36;14.10;99.90
14349;DHT22;7258;50.376;8.742;2023-05-07T05:10:39;14.10;99.90
14349;DHT22;7258;50.376;8.742;2023-05-07T05:12:44;14.10;99.90
14349;DHT22;7258;50.376;8.742;2023-05-07T05:14:49;14.10;99.90
14349;DHT22;7258;50.376;8.742;2023-05-07T05:16:51;14.10;99.90
14349;DHT22;7258;50.376;8.742;2023-05-07T05:18:54;14.20;99.90
14349;DHT22;7258;50.376;8.742;2023-05-07T05:20:57;14.20;99.90
14349;DHT22;7258;50.376;8.742;2023-05-07T05:23:00;14.20;99.90
14349;DHT22;7258;50.376;8.742;2023-05-07T05:25:04;14.20;99.90
14349;DHT22;7258;50.376;8.742;2023-05-07T05:27:07;14.30;99.90
14349;DHT22;7258;50.376;8.742;2023-05-07T05:29:09;14.30;99.90
14349;DHT22;7258;50.376;8.742;2023-05-07T05:31:14;14.40;99.90
14349;DHT22;7258;50.376;8.742;2023-05-07T05:33:17;14.40;99.90
14349;DHT22;7258;50.376;8.742;2023-05-07T05:35:20;14.50;99.90
14349;DHT22;7258;50.376;8.742;2023-05-07T05:37:22;14.50;99.90
14349;DHT22;7258;50.376;8.742;2023-05-07T05:39:25;14.50;99.90
14349;DHT22;7258;50.376;8.742;2023-05-07T05:41:29;14.50;99.90
14349;DHT22;7258;50.376;8.742;2023-05-07T05:43:32;14.50;99.90
14349;DHT22;7258;50.376;8.742;2023-05-07T05:45:39;14.50;99.90
14349;DHT22;7258;50.376;8.742;2023-05-07T05:47:44;14.60;99.90
14349;DHT22;7258;50.376;8.742;2023-05-07T05:49:47;14.60;99.90
14349;DHT22;7258;50.376;8.742;2023-05-07T05:51:50;14.70;99.90
14349;DHT22;7258;50.376;8.742;2023-05-07T05:53:52;14.80;99.90
14349;DHT22;7258;50.376;8.742;2023-05-07T05:55:55;14.80;99.90
14349;DHT22;7258;50.376;8.742;2023-05-07T05:57:59;14.80;99.90
14349;DHT22;7258;50.376;8.742;2023-05-07T06:00:04;14.90;99.90
14349;DHT22;7258;50.376;8.742;2023-05-07T06:02:11;15.00;99.90
14349;DHT22;7258;50.376;8.742;2023-05-07T06:04:18;15.10;99.90
14349;DHT22;7258;50.376;8.742;2023-05-07T06:06:21;15.20;99.90
14349;DHT22;7258;50.376;8.742;2023-05-07T06:08:23;15.30;99.90
14349;DHT22;7258;50.376;8.742;2023-05-07T06:10:28;15.40;99.90
14349;DHT22;7258;50.376;8.742;2023-05-07T06:12:32;15.50;99.90
14349;DHT22;7258;50.376;8.742;2023-05-07T06:14:35;15.50;99.90
14349;DHT22;7258;50.376;8.742;2023-05-07T06:16:38;15.60;99.90
14349;DHT22;7258;50.376;8.742;2023-05-07T06:18:41;15.70;99.90
14349;DHT22;7258;50.376;8.742;2023-05-07T06:20:46;15.80;99.90
14349;DHT22;7258;50.376;8.742;2023-05-07T06:22:49;15.80;99.90
14349;DHT22;7258;50.376;8.742;2023-05-07T06:24:58;15.90;99.90
14349;DHT22;7258;50.376;8.742;2023-05-07T06:27:10;15.90;99.90
14349;DHT22;7258;50.376;8.742;2023-05-07T06:29:19;16.00;99.90
14349;DHT22;7258;50.376;8.742;2023-05-07T06:31:21;16.00;99.90
14349;DHT22;7258;50.376;8.742;2023-05-07T06:33:24;16.00;99.90
14349;DHT22;7258;50.376;8.742;2023-05-07T06:35:28;16.00;99.90
14349;DHT22;7258;50.376;8.742;2023-05-07T06:37:32;16.00;99.90
14349;DHT22;7258;50.376;8.742;2023-05-07T06:39:35;16.10;99.90
14349;DHT22;7258;50.376;8.742;2023-05-07T06:41:41;16.20;99.90
14349;DHT22;7258;50.376;8.742;2023-05-07T06:43:44;16.40;99.90
14349;DHT22;7258;50.376;8.742;2023-05-07T06:45:51;16.50;99.90
14349;DHT22;7258;50.376;8.742;2023-05-07T06:47:54;16.60;99.90
14349;DHT22;7258;50.376;8.742;2023-05-07T06:50:03;16.70;99.90
14349;DHT22;7258;50.376;8.742;2023-05-07T06:52:06;16.80;99.90
14349;DHT22;7258;50.376;8.742;2023-05-07T06:54:11;16.90;99.90
14349;DHT22;7258;50.376;8.742;2023-05-07T06:56:15;16.90;99.90
14349;DHT22;7258;50.376;8.742;2023-05-07T06:58:18;17.10;99.90
14349;DHT22;7258;50.376;8.742;2023-05-07T07:00:27;17.20;99.90
14349;DHT22;7258;50.376;8.742;2023-05-07T07:02:40;17.30;99.90
14349;DHT22;7258;50.376;8.742;2023-05-07T07:04:49;17.30;99.90
14349;DHT22;7258;50.376;8.742;2023-05-07T07:06:53;17.40;99.90
14349;DHT22;7258;50.376;8.742;2023-05-07T07:09:06;17.50;99.90
14349;DHT22;7258;50.376;8.742;2023-05-07T07:11:16;17.60;99.90
14349;DHT22;7258;50.376;8.742;2023-05-07T07:13:25;17.70;99.90
14349;DHT22;7258;50.376;8.742;2023-05-07T07:15:28;17.90;99.90
14349;DHT22;7258;50.376;8.742;2023-05-07T07:17:31;17.80;99.90
14349;DHT22;7258;50.376;8.742;2023-05-07T07:19:35;18.00;99.90
14349;DHT22;7258;50.376;8.742;2023-05-07T07:21:38;18.00;99.90
14349;DHT22;7258;50.376;8.742;2023-05-07T07:23:41;17.90;99.90
14349;DHT22;7258;50.376;8.742;2023-05-07T07:25:47;18.00;99.90
14349;DHT22;7258;50.376;8.742;2023-05-07T07:28:06;17.90;99.90
14349;DHT22;7258;50.376;8.742;2023-05-07T07:30:31;17.80;99.90
14349;DHT22;7258;50.376;8.742;2023-05-07T07:32:37;17.80;99.90
14349;DHT22;7258;50.376;8.742;2023-05-07T07:34:40;18.00;99.90
14349;DHT22;7258;50.376;8.742;2023-05-07T07:36:43;18.30;99.90
14349;DHT22;7258;50.376;8.742;2023-05-07T07:38:47;18.60;99.90
14349;DHT22;7258;50.376;8.742;2023-05-07T07:40:50;18.80;99.90
14349;DHT22;7258;50.376;8.742;2023-05-07T07:42:54;19.00;99.90
14349;DHT22;7258;50.376;8.742;2023-05-07T07:44:58;19.10;99.90
14349;DHT22;7258;50.376;8.742;2023-05-07T07:47:01;19.20;99.90
14349;DHT22;7258;50.376;8.742;2023-05-07T07:49:04;19.30;99.90
14349;DHT22;7258;50.376;8.742;2023-05-07T07:51:08;19.40;99.90
14349;DHT22;7258;50.376;8.742;2023-05-07T07:53:11;19.50;99.90
14349;DHT22;7258;50.376;8.742;2023-05-07T07:55:14;19.60;99.90
14349;DHT22;7258;50.376;8.742;2023-05-07T07:57:19;19.70;99.90
14349;DHT22;7258;50.376;8.742;2023-05-07T07:59:22;19.80;99.90
14349;DHT22;7258;50.376;8.742;2023-05-07T08:01:29;19.90;99.90
14349;DHT22;7258;50.376;8.742;2023-05-07T08:03:32;20.00;99.90
14349;DHT22;7258;50.376;8.742;2023-05-07T08:05:35;19.90;99.90
14349;DHT22;7258;50.376;8.742;2023-05-07T08:07:40;19.90;99.90
14349;DHT22;7258;50.376;8.742;2023-05-07T08:09:43;19.90;99.90
14349;DHT22;7258;50.376;8.742;2023-05-07T08:11:46;19.90;99.90
14349;DHT22;7258;50.376;8.742;2023-05-07T08:13:49;19.90;99.90
14349;DHT22;7258;50.376;8.742;2023-05-07T08:15:52;20.00;99.90
14349;DHT22;7258;50.376;8.742;2023-05-07T08:18:07;20.10;99.90
14349;DHT22;7258;50.376;8.742;2023-05-07T08:20:25;20.30;99.90
14349;DHT22;7258;50.376;8.742;2023-05-07T08:22:34;20.30;99.90
14349;DHT22;7258;50.376;8.742;2023-05-07T08:24:37;20.50;99.90
14349;DHT22;7258;50.376;8.742;2023-05-07T08:26:58;20.60;99.90
14349;DHT22;7258;50.376;8.742;2023-05-07T08:29:03;20.70;99.90
14349;DHT22;7258;50.376;8.742;2023-05-07T08:31:06;20.80;99.90
14349;DHT22;7258;50.376;8.742;2023-05-07T08:33:13;20.90;99.90
14349;DHT22;7258;50.376;8.742;2023-05-07T08:35:16;21.00;99.90
14349;DHT22;7258;50.376;8.742;2023-05-07T08:37:20;21.10;99.90
14349;DHT22;7258;50.376;8.742;2023-05-07T08:39:23;21.20;99.90
14349;DHT22;7258;50.376;8.742;2023-05-07T08:41:26;21.40;99.90
14349;DHT22;7258;50.376;8.742;2023-05-07T08:43:32;21.50;99.90
14349;DHT22;7258;50.376;8.742;2023-05-07T08:45:39;21.50;99.90
14349;DHT22;7258;50.376;8.742;2023-05-07T08:47:44;21.60;99.90
14349;DHT22;7258;50.376;8.742;2023-05-07T08:49:49;21.70;99.90
14349;DHT22;7258;50.376;8.742;2023-05-07T08:51:52;21.70;99.90
14349;DHT22;7258;50.376;8.742;2023-05-07T08:53:55;21.70;99.90
14349;DHT22;7258;50.376;8.742;2023-05-07T08:55:59;21.60;99.90
14349;DHT22;7258;50.376;8.742;2023-05-07T08:58:08;21.50;99.90
14349;DHT22;7258;50.376;8.742;2023-05-07T09:00:12;21.50;99.90
14349;DHT22;7258;50.376;8.742;2023-05-07T09:02:15;21.50;99.90
14349;DHT22;7258;50.376;8.742;2023-05-07T09:04:20;21.50;99.90
14349;DHT22;7258;50.376;8.742;2023-05-07T09:06:24;21.70;99.90
14349;DHT22;7258;50.376;8.742;2023-05-07T09:08:28;21.80;99.90
14349;DHT22;7258;50.376;8.742;2023-05-07T09:10:32;21.90;99.90
14349;DHT22;7258;50.376;8.742;2023-05-07T09:12:36;22.00;99.90
14349;DHT22;7258;50.376;8.742;2023-05-07T09:14:39;22.00;99.90
14349;DHT22;7258;50.376;8.742;2023-05-07T09:16:42;22.10;99.90
14349;DHT22;7258;50.376;8.742;2023-05-07T09:18:45;22.20;99.90
14349;DHT22;7258;50.376;8.742;2023-05-07T09:20:49;22.40;99.90
14349;DHT22;7258;50.376;8.742;2023-05-07T09:22:55;22.60;99.90
14349;DHT22;7258;50.376;8.742;2023-05-07T09:24:58;22.70;99.90
14349;DHT22;7258;50.376;8.742;2023-05-07T09:27:04;22.70;99.90
14349;DHT22;7258;50.376;8.742;2023-05-07T09:29:09;22.60;99.90
14349;DHT22;7258;50.376;8.742;2023-05-07T09:31:18;22.60;99.90
14349;DHT22;7258;50.376;8.742;2023-05-07T09:33:28;22.50;99.90
14349;DHT22;7258;50.376;8.742;2023-05-07T09:35:32;22.30;99.90
14349;DHT22;7258;50.376;8.742;2023-05-07T09:37:40;22.20;99.90
14349;DHT22;7258;50.376;8.742;2023-05-07T09:39:49;22.20;99.90
14349;DHT22;7258;50.376;8.742;2023-05-07T09:41:58;22.20;99.90
14349;DHT22;7258;50.376;8.742;2023-05-07T09:44:06;22.10;99.90
14349;DHT22;7258;50.376;8.742;2023-05-07T09:46:13;22.10;99.90
14349;DHT22;7258;50.376;8.742;2023-05-07T09:48:26;22.00;99.90
14349;DHT22;7258;50.376;8.742;2023-05-07T09:50:36;22.10;99.90
14349;DHT22;7258;50.376;8.742;2023-05-07T09:52:44;22.20;99.90
14349;DHT22;7258;50.376;8.742;2023-05-07T09:54:53;22.20;99.90
14349;DHT22;7258;50.376;8.742;2023-05-07T09:57:01;22.10;99.90
14349;DHT22;7258;50.376;8.742;2023-05-07T09:59:13;22.30;99.90
14349;DHT22;7258;50.376;8.742;2023-05-07T10:01:38;22.50;99.90
14349;DHT22;7258;50.376;8.742;2023-05-07T10:03:44;22.70;99.90
14349;DHT22;7258;50.376;8.742;2023-05-07T10:05:50;22.80;99.90
14349;DHT22;7258;50.376;8.742;2023-05-07T10:07:54;23.00;99.90
14349;DHT22;7258;50.376;8.742;2023-05-07T10:10:00;23.10;99.90
14349;DHT22;7258;50.376;8.742;2023-05-07T10:12:20;22.90;99.50
14349;DHT22;7258;50.376;8.742;2023-05-07T10:14:38;22.80;99.40
14349;DHT22;7258;50.376;8.742;2023-05-07T10:16:43;22.50;99.90
14349;DHT22;7258;50.376;8.742;2023-05-07T10:18:50;22.50;99.90
14349;DHT22;7258;50.376;8.742;2023-05-07T10:20:57;22.40;99.90
14349;DHT22;7258;50.376;8.742;2023-05-07T10:23:13;22.50;99.90
14349;DHT22;7258;50.376;8.742;2023-05-07T10:25:46;22.40;99.90
14349;DHT22;7258;50.376;8.742;2023-05-07T10:28:08;22.40;99.80
14349;DHT22;7258;50.376;8.742;2023-05-07T10:30:33;22.50;99.90
14349;DHT22;7258;50.376;8.742;2023-05-07T10:32:50;22.60;99.80
14349;DHT22;7258;50.376;8.742;2023-05-07T10:35:17;22.70;99.70
14349;DHT22;7258;50.376;8.742;2023-05-07T10:37:22;22.90;99.70
14349;DHT22;7258;50.376;8.742;2023-05-07T10:39:39;23.10;99.60
14349;DHT22;7258;50.376;8.742;2023-05-07T10:41:44;23.10;99.60
14349;DHT22;7258;50.376;8.742;2023-05-07T10:43:47;23.20;99.10
14349;DHT22;7258;50.376;8.742;2023-05-07T10:46:11;23.20;99.20
14349;DHT22;7258;50.376;8.742;2023-05-07T10:48:19;23.30;99.00
14349;DHT22;7258;50.376;8.742;2023-05-07T10:51:21;23.50;99.10
14349;DHT22;7258;50.376;8.742;2023-05-07T10:53:56;23.80;98.50
14349;DHT22;7258;50.376;8.742;2023-05-07T10:56:35;23.90;98.40
14349;DHT22;7258;50.376;8.742;2023-05-07T10:59:30;23.90;97.80
14349;DHT22;7258;50.376;8.742;2023-05-07T11:01:50;23.90;98.00
14349;DHT22;7258;50.376;8.742;2023-05-07T11:04:12;24.00;98.10
14349;DHT22;7258;50.376;8.742;2023-05-07T11:06:16;24.10;97.80
14349;DHT22;7258;50.376;8.742;2023-05-07T11:08:19;24.20;98.20
14349;DHT22;7258;50.376;8.742;2023-05-07T11:10:22;24.40;97.90
14349;DHT22;7258;50.376;8.742;2023-05-07T11:12:47;24.60;97.80
14349;DHT22;7258;50.376;8.742;2023-05-07T11:14:53;24.90;97.20
14349;DHT22;7258;50.376;8.742;2023-05-07T11:17:02;25.00;96.70
14349;DHT22;7258;50.376;8.742;2023-05-07T11:19:05;25.00;95.70
14349;DHT22;7258;50.376;8.742;2023-05-07T11:21:08;25.00;96.10
14349;DHT22;7258;50.376;8.742;2023-05-07T11:23:56;25.00;96.10
14349;DHT22;7258;50.376;8.742;2023-05-07T11:26:00;24.90;96.30
14349;DHT22;7258;50.376;8.742;2023-05-07T11:28:07;24.80;96.50
14349;DHT22;7258;50.376;8.742;2023-05-07T11:30:18;24.80;96.10
14349;DHT22;7258;50.376;8.742;2023-05-07T11:32:22;24.80;95.90
14349;DHT22;7258;50.376;8.742;2023-05-07T11:34:46;24.60;96.50
14349;DHT22;7258;50.376;8.742;2023-05-07T11:36:58;24.50;96.90
14349;DHT22;7258;50.376;8.742;2023-05-07T11:39:23;24.50;97.20
14349;DHT22;7258;50.376;8.742;2023-05-07T11:41:52;24.60;97.20
14349;DHT22;7258;50.376;8.742;2023-05-07T11:43:59;24.70;97.10
14349;DHT22;7258;50.376;8.742;2023-05-07T11:46:11;24.90;96.80
14349;DHT22;7258;50.376;8.742;2023-05-07T11:48:43;24.90;96.50
14349;DHT22;7258;50.376;8.742;2023-05-07T11:51:02;24.90;96.50
14349;DHT22;7258;50.376;8.742;2023-05-07T11:53:20;25.00;96.60
14349;DHT22;7258;50.376;8.742;2023-05-07T11:56:07;25.10;95.90
14349;DHT22;7258;50.376;8.742;2023-05-07T11:58:30;25.40;95.80
14349;DHT22;7258;50.376;8.742;2023-05-07T12:00:33;25.30;95.30
14349;DHT22;7258;50.376;8.742;2023-05-07T12:02:39;25.40;95.70
14349;DHT22;7258;50.376;8.742;2023-05-07T12:04:44;25.30;95.40
14349;DHT22;7258;50.376;8.742;2023-05-07T12:07:10;25.20;95.40
14349;DHT22;7258;50.376;8.742;2023-05-07T12:09:14;25.20;95.50
14349;DHT22;7258;50.376;8.742;2023-05-07T12:11:31;25.30;95.60
14349;DHT22;7258;50.376;8.742;2023-05-07T12:14:13;25.30;95.30
14349;DHT22;7258;50.376;8.742;2023-05-07T12:16:19;25.20;96.20
14349;DHT22;7258;50.376;8.742;2023-05-07T12:18:25;25.20;96.20
14349;DHT22;7258;50.376;8.742;2023-05-07T12:20:37;25.20;95.60
14349;DHT22;7258;50.376;8.742;2023-05-07T12:22:43;25.10;95.20
14349;DHT22;7258;50.376;8.742;2023-05-07T12:24:47;25.00;95.10
14349;DHT22;7258;50.376;8.742;2023-05-07T12:26:51;25.00;95.50
14349;DHT22;7258;50.376;8.742;2023-05-07T12:28:57;25.10;95.20
14349;DHT22;7258;50.376;8.742;2023-05-07T12:31:01;25.00;95.10
14349;DHT22;7258;50.376;8.742;2023-05-07T12:33:07;24.90;95.20
14349;DHT22;7258;50.376;8.742;2023-05-07T12:35:12;24.80;94.90
14349;DHT22;7258;50.376;8.742;2023-05-07T12:37:23;24.90;94.90
14349;DHT22;7258;50.376;8.742;2023-05-07T12:39:35;24.90;94.70
14349;DHT22;7258;50.376;8.742;2023-05-07T12:41:54;25.00;95.00
14349;DHT22;7258;50.376;8.742;2023-05-07T12:44:04;25.00;94.70
14349;DHT22;7258;50.376;8.742;2023-05-07T12:46:08;25.20;93.20
14349;DHT22;7258;50.376;8.742;2023-05-07T12:48:21;25.10;93.10
14349;DHT22;7258;50.376;8.742;2023-05-07T12:50:31;25.10;92.60
14349;DHT22;7258;50.376;8.742;2023-05-07T12:52:34;25.20;93.20
14349;DHT22;7258;50.376;8.742;2023-05-07T12:54:39;25.20;93.00
14349;DHT22;7258;50.376;8.742;2023-05-07T12:56:42;25.30;93.40
14349;DHT22;7258;50.376;8.742;2023-05-07T12:58:51;25.40;93.70
14349;DHT22;7258;50.376;8.742;2023-05-07T13:01:03;25.70;92.90
14349;DHT22;7258;50.376;8.742;2023-05-07T13:03:09;25.70;92.30
14349;DHT22;7258;50.376;8.742;2023-05-07T13:05:13;25.90;92.30
14349;DHT22;7258;50.376;8.742;2023-05-07T13:07:17;26.00;92.50
14349;DHT22;7258;50.376;8.742;2023-05-07T13:09:23;26.20;92.40
14349;DHT22;7258;50.376;8.742;2023-05-07T13:11:26;26.40;91.90
14349;DHT22;7258;50.376;8.742;2023-05-07T13:13:29;26.50;91.30
14349;DHT22;7258;50.376;8.742;2023-05-07T13:15:33;26.50;91.10
14349;DHT22;7258;50.376;8.742;2023-05-07T13:17:37;26.40;90.80
14349;DHT22;7258;50.376;8.742;2023-05-07T13:19:41;26.50;91.00
14349;DHT22;7258;50.376;8.742;2023-05-07T13:21:44;26.50;90.80
14349;DHT22;7258;50.376;8.742;2023-05-07T13:23:48;26.60;91.30
14349;DHT22;7258;50.376;8.742;2023-05-07T13:25:51;26.60;90.60
14349;DHT22;7258;50.376;8.742;2023-05-07T13:27:56;26.50;90.20
14349;DHT22;7258;50.376;8.742;2023-05-07T13:30:12;26.40;90.70
14349;DHT22;7258;50.376;8.742;2023-05-07T13:32:15;26.40;90.80